createdAt,value
2023-02-07T00:01:27.395Z,10.38
2023-02-07T00:03:56.520Z,9.45
2023-02-07T00:06:33.395Z,10.50
2023-02-07T00:09:03.025Z,11.68
2023-02-07T00:11:29.962Z,9.05
2023-02-07T00:13:59.289Z,8.88
2023-02-07T00:18:54.858Z,7.53
2023-02-07T00:21:24.663Z,6.95
2023-02-07T00:23:53.394Z,7.38
2023-02-07T00:26:23.089Z,6.22
2023-02-07T00:28:53.728Z,5.43
2023-02-07T00:31:25.245Z,6.25
2023-02-07T00:33:56.396Z,5.90
2023-02-07T00:36:25.737Z,4.10
2023-02-07T00:39:00.655Z,4.43
2023-02-07T00:41:28.617Z,4.15
2023-02-07T00:43:55.929Z,4.88
2023-02-07T00:46:24.487Z,5.63
2023-02-07T00:48:52.390Z,6.10
2023-02-07T00:51:19.958Z,6.68
2023-02-07T00:53:48.484Z,7.28
2023-02-07T00:56:15.624Z,6.85
2023-02-07T00:58:42.471Z,7.72
2023-02-07T01:01:09.684Z,9.05
2023-02-07T01:03:36.545Z,11.35
2023-02-07T01:06:03.893Z,10.13
2023-02-07T01:08:30.905Z,8.93
2023-02-07T01:11:01.673Z,9.10
2023-02-07T01:13:28.617Z,11.13
2023-02-07T01:15:55.531Z,12.25
2023-02-07T01:18:22.488Z,15.95
2023-02-07T01:20:49.407Z,16.25
2023-02-07T01:23:16.532Z,11.77
2023-02-07T01:25:44.834Z,13.65
2023-02-07T01:28:14.278Z,11.82
2023-02-07T01:30:44.319Z,21.35
2023-02-07T01:33:11.618Z,20.85
2023-02-07T01:35:39.541Z,14.68
2023-02-07T01:38:07.950Z,8.98
2023-02-07T01:40:38.146Z,5.10
2023-02-07T01:43:06.900Z,4.10
2023-02-07T01:45:40.794Z,3.72
2023-02-07T01:48:19.296Z,3.90
2023-02-07T01:50:49.892Z,3.40
2023-02-07T01:53:22.350Z,3.03
2023-02-07T01:55:52.513Z,3.38
2023-02-07T01:58:19.774Z,4.40
2023-02-07T02:00:48.033Z,4.88
2023-02-07T02:03:14.993Z,4.15
2023-02-07T02:05:44.283Z,4.22
2023-02-07T02:08:11.404Z,4.85
2023-02-07T02:11:02.873Z,4.60
2023-02-07T02:13:57.872Z,4.43
2023-02-07T02:16:48.678Z,5.28
2023-02-07T02:19:56.651Z,3.75
2023-02-07T02:22:47.983Z,5.10
2023-02-07T02:26:03.713Z,5.47
2023-02-07T02:29:04.386Z,3.83
2023-02-07T02:32:13.094Z,4.85
2023-02-07T02:35:34.918Z,5.22
2023-02-07T02:38:36.698Z,4.97
2023-02-07T02:41:08.584Z,4.97
2023-02-07T02:43:40.214Z,5.85
2023-02-07T02:46:25.492Z,5.82
2023-02-07T02:48:54.932Z,5.10
2023-02-07T02:51:21.996Z,7.05
2023-02-07T02:53:57.530Z,5.80
2023-02-07T02:56:58.673Z,6.13
2023-02-07T02:59:50.472Z,6.88
2023-02-07T03:02:40.755Z,4.70
2023-02-07T03:05:41.041Z,3.90
2023-02-07T03:08:33.339Z,4.53
2023-02-07T03:11:18.770Z,4.47
2023-02-07T03:14:09.707Z,4.82
2023-02-07T03:16:59.253Z,5.53
2023-02-07T03:19:39.134Z,4.55
2023-02-07T03:22:15.106Z,3.75
2023-02-07T03:24:55.472Z,5.47
2023-02-07T03:27:27.607Z,4.88
2023-02-07T03:29:59.131Z,4.57
2023-02-07T03:32:37.248Z,4.78
2023-02-07T03:35:20.608Z,3.97
2023-02-07T03:37:57.504Z,4.43
2023-02-07T03:40:32.731Z,4.10
2023-02-07T03:43:10.729Z,4.15
2023-02-07T03:45:38.250Z,4.28
2023-02-07T03:48:05.420Z,4.38
2023-02-07T03:50:32.949Z,4.60
2023-02-07T03:52:59.928Z,4.40
2023-02-07T03:55:27.692Z,4.57
2023-02-07T03:57:54.644Z,4.93
2023-02-07T04:00:21.697Z,5.18
2023-02-07T04:02:48.573Z,5.10
2023-02-07T04:05:15.668Z,4.30
2023-02-07T04:07:42.604Z,4.53
2023-02-07T04:10:11.155Z,4.78
2023-02-07T04:12:38.249Z,5.28
2023-02-07T04:15:06.753Z,5.45
2023-02-07T04:17:34.382Z,5.75
2023-02-07T04:20:01.764Z,6.28
2023-02-07T04:22:30.140Z,5.95
2023-02-07T04:24:57.457Z,5.95
2023-02-07T04:27:24.769Z,6.47
2023-02-07T04:29:52.336Z,6.85
2023-02-07T04:32:19.319Z,6.53
2023-02-07T04:34:46.434Z,6.13
2023-02-07T04:37:13.992Z,6.10
2023-02-07T04:39:40.876Z,5.38
2023-02-07T04:42:07.816Z,6.10
2023-02-07T04:44:34.910Z,5.45
2023-02-07T04:47:01.839Z,5.88
2023-02-07T04:49:28.814Z,5.68
2023-02-07T04:51:55.754Z,5.68
2023-02-07T04:54:22.625Z,4.78
2023-02-07T04:56:49.556Z,4.57
2023-02-07T04:59:16.494Z,4.90
2023-02-07T05:01:43.351Z,5.22
2023-02-07T05:04:10.376Z,5.45
2023-02-07T05:06:37.281Z,5.13
2023-02-07T05:09:04.230Z,4.55
2023-02-07T05:11:31.099Z,4.78
2023-02-07T05:13:57.978Z,5.10
2023-02-07T05:16:24.901Z,5.55
2023-02-07T05:18:51.816Z,5.90
2023-02-07T05:21:18.896Z,6.07
2023-02-07T05:23:46.613Z,5.82
2023-02-07T05:26:14.464Z,5.88
2023-02-07T05:28:41.367Z,6.20
2023-02-07T05:31:08.439Z,5.78
2023-02-07T05:33:35.368Z,5.72
2023-02-07T05:36:05.204Z,6.07
2023-02-07T05:38:32.448Z,5.60
2023-02-07T05:40:59.831Z,5.82
2023-02-07T05:43:26.811Z,6.00
2023-02-07T05:45:53.701Z,5.32
2023-02-07T05:48:20.666Z,6.05
2023-02-07T05:50:47.968Z,5.40
2023-02-07T05:53:15.259Z,5.60
2023-02-07T05:55:42.115Z,5.63
2023-02-07T05:58:09.075Z,6.47
2023-02-07T06:00:36.570Z,6.28
2023-02-07T06:03:03.716Z,5.35
2023-02-07T06:05:31.961Z,6.05
2023-02-07T06:07:59.393Z,6.22
2023-02-07T06:10:26.585Z,6.60
2023-02-07T06:12:53.547Z,6.30
2023-02-07T06:15:20.457Z,6.47
2023-02-07T06:17:48.210Z,5.47
2023-02-07T06:20:15.586Z,6.43
2023-02-07T06:22:42.516Z,6.85
2023-02-07T06:25:12.177Z,6.80
2023-02-07T06:27:41.328Z,6.78
2023-02-07T06:30:11.732Z,7.72
2023-02-07T06:32:39.201Z,7.05
2023-02-07T06:35:07.589Z,8.43
2023-02-07T06:37:35.013Z,8.48
2023-02-07T06:40:02.053Z,8.73
2023-02-07T06:42:30.105Z,8.10
2023-02-07T06:44:57.010Z,7.47
2023-02-07T06:47:24.354Z,8.70
2023-02-07T06:49:51.183Z,7.78
2023-02-07T06:52:18.496Z,7.13
2023-02-07T06:54:45.705Z,7.57
2023-02-07T06:57:12.634Z,6.55
2023-02-07T06:59:39.499Z,7.43
2023-02-07T07:02:06.906Z,7.32
2023-02-07T07:04:33.904Z,7.10
2023-02-07T07:07:01.045Z,9.40
2023-02-07T07:09:28.093Z,8.93
2023-02-07T07:11:55.014Z,9.57
2023-02-07T07:14:21.985Z,9.15
2023-02-07T07:16:48.969Z,8.57
2023-02-07T07:19:15.926Z,8.98
2023-02-07T07:21:43.352Z,9.00
2023-02-07T07:24:10.286Z,11.32
2023-02-07T07:26:48.972Z,12.77
2023-02-07T07:29:19.759Z,11.25
2023-02-07T07:31:47.208Z,10.70
2023-02-07T07:34:14.727Z,10.10
2023-02-07T07:36:41.872Z,11.15
2023-02-07T07:39:09.164Z,10.98
2023-02-07T07:41:36.433Z,10.25
2023-02-07T07:44:03.809Z,10.30
2023-02-07T07:46:30.768Z,11.32
2023-02-07T07:48:57.906Z,11.38
2023-02-07T07:51:24.910Z,17.15
2023-02-07T07:53:51.885Z,26.23
2023-02-07T07:56:18.780Z,17.17
2023-02-07T07:58:45.773Z,16.75
2023-02-07T08:01:12.671Z,15.30
2023-02-07T08:03:39.654Z,15.15
2023-02-07T08:06:07.206Z,15.82
2023-02-07T08:08:34.307Z,15.85
2023-02-07T08:11:04.017Z,13.57
2023-02-07T08:13:33.049Z,10.70
2023-02-07T08:16:01.235Z,10.63
2023-02-07T08:18:29.232Z,10.27
2023-02-07T08:20:56.679Z,10.35
2023-02-07T08:23:23.646Z,9.82
2023-02-07T08:25:50.616Z,10.32
2023-02-07T08:28:18.892Z,9.77
2023-02-07T08:30:47.658Z,10.43
2023-02-07T08:33:16.422Z,9.88
2023-02-07T08:35:43.849Z,10.25
2023-02-07T08:38:11.367Z,9.05
2023-02-07T08:40:38.870Z,9.27
2023-02-07T08:43:12.178Z,9.73
2023-02-07T08:45:41.076Z,10.48
2023-02-07T08:48:08.435Z,9.25
2023-02-07T08:50:35.661Z,9.30
2023-02-07T08:53:02.556Z,9.75
2023-02-07T08:55:30.608Z,11.60
2023-02-07T08:57:57.535Z,11.82
2023-02-07T09:00:24.637Z,10.93
2023-02-07T09:02:51.541Z,10.98
2023-02-07T09:05:18.524Z,10.18
2023-02-07T09:07:45.544Z,11.18
2023-02-07T09:10:12.510Z,9.73
2023-02-07T09:12:39.407Z,11.02
2023-02-07T09:15:06.823Z,12.15
2023-02-07T09:17:33.740Z,11.80
2023-02-07T09:20:00.759Z,10.27
2023-02-07T09:22:27.651Z,9.00
2023-02-07T09:24:54.524Z,9.88
2023-02-07T09:27:21.422Z,9.88
2023-02-07T09:29:48.521Z,9.98
2023-02-07T09:32:15.439Z,10.15
2023-02-07T09:34:42.498Z,10.32
2023-02-07T09:37:09.348Z,8.77
2023-02-07T09:39:38.865Z,8.95
2023-02-07T09:42:14.788Z,9.75
2023-02-07T09:45:01.709Z,9.10
2023-02-07T09:47:32.169Z,9.30
2023-02-07T09:50:03.966Z,8.98
2023-02-07T09:52:42.084Z,10.60
2023-02-07T09:55:22.096Z,9.18
2023-02-07T09:58:13.712Z,10.45
2023-02-07T10:00:43.395Z,9.73
2023-02-07T10:03:24.059Z,9.60
2023-02-07T10:06:12.579Z,9.02
2023-02-07T10:08:49.693Z,12.70
2023-02-07T10:11:45.613Z,13.13
2023-02-07T10:14:49.162Z,9.35
2023-02-07T10:17:31.383Z,12.00
2023-02-07T10:20:26.429Z,10.35
2023-02-07T10:23:05.048Z,8.15
2023-02-07T10:25:45.872Z,9.60
2023-02-07T10:28:15.539Z,9.65
2023-02-07T10:31:00.488Z,9.63
2023-02-07T10:33:38.219Z,10.55
2023-02-07T10:36:18.264Z,11.10
2023-02-07T10:39:14.394Z,9.95
2023-02-07T10:41:44.975Z,10.68
2023-02-07T10:44:17.598Z,10.25
2023-02-07T10:46:47.606Z,10.98
2023-02-07T10:49:25.326Z,12.75
2023-02-07T10:52:00.981Z,11.77
2023-02-07T10:54:27.921Z,9.85
2023-02-07T10:57:02.520Z,10.57
2023-02-07T10:59:49.091Z,11.00
2023-02-07T11:02:39.544Z,11.00
2023-02-07T11:05:15.647Z,9.00
2023-02-07T11:08:15.076Z,10.32
2023-02-07T11:10:45.569Z,9.90
2023-02-07T11:13:37.340Z,9.98
2023-02-07T11:16:08.609Z,9.63
2023-02-07T11:18:55.790Z,9.60
2023-02-07T11:21:35.247Z,9.02
2023-02-07T11:24:13.645Z,9.35
2023-02-07T11:27:04.890Z,9.70
2023-02-07T11:29:39.796Z,9.38
2023-02-07T11:32:06.840Z,10.15
2023-02-07T11:34:46.381Z,9.23
2023-02-07T11:37:27.233Z,9.60
2023-02-07T11:40:37.960Z,9.68
2023-02-07T11:43:18.010Z,9.73
2023-02-07T11:45:50.134Z,8.55
2023-02-07T11:48:40.281Z,9.07
2023-02-07T11:51:14.942Z,9.48
2023-02-07T11:54:00.735Z,8.65
2023-02-07T11:56:42.755Z,8.63
2023-02-07T11:59:22.845Z,9.10
2023-02-07T12:01:57.479Z,8.40
2023-02-07T12:04:36.825Z,8.93
2023-02-07T12:07:17.655Z,8.85
2023-02-07T12:09:55.930Z,8.68
2023-02-07T12:12:40.633Z,8.00
2023-02-07T12:15:21.007Z,8.07
2023-02-07T12:18:03.436Z,8.95
2023-02-07T12:20:34.539Z,8.27
2023-02-07T12:23:46.387Z,8.15
2023-02-07T12:26:31.508Z,7.95
2023-02-07T12:29:32.649Z,7.85
2023-02-07T12:32:27.467Z,6.75
2023-02-07T12:35:24.787Z,6.75
2023-02-07T12:38:25.138Z,7.00
2023-02-07T12:41:41.358Z,5.75
2023-02-07T12:44:22.075Z,6.15
2023-02-07T12:47:04.928Z,7.70
2023-02-07T12:49:53.529Z,6.90
2023-02-07T12:52:53.248Z,5.78
2023-02-07T12:55:54.146Z,6.28
2023-02-07T12:58:30.958Z,6.30
2023-02-07T13:01:36.268Z,6.65
2023-02-07T13:04:55.672Z,6.10
2023-02-07T13:07:41.188Z,6.13
2023-02-07T13:10:51.545Z,6.13
2023-02-07T13:13:36.154Z,6.43
2023-02-07T13:16:14.926Z,6.45
2023-02-07T13:19:20.937Z,5.97
2023-02-07T13:22:00.188Z,6.70
2023-02-07T13:24:29.928Z,7.40
2023-02-07T13:27:10.573Z,6.07
2023-02-07T13:29:39.351Z,6.65
2023-02-07T13:32:13.022Z,5.93
2023-02-07T13:35:24.819Z,5.90
2023-02-07T13:38:18.852Z,6.15
2023-02-07T13:41:17.634Z,6.47
2023-02-07T13:44:08.978Z,5.72
2023-02-07T13:47:07.287Z,6.78
2023-02-07T13:50:04.757Z,6.07
2023-02-07T13:53:13.961Z,6.15
2023-02-07T13:55:43.061Z,5.72
2023-02-07T13:58:53.240Z,5.97
2023-02-07T14:01:24.873Z,6.30
2023-02-07T14:04:06.918Z,6.10
2023-02-07T14:07:11.741Z,5.03
2023-02-07T14:09:47.498Z,5.88
2023-02-07T14:12:48.548Z,5.57
2023-02-07T14:15:42.768Z,5.88
2023-02-07T14:18:38.425Z,5.70
2023-02-07T14:21:21.423Z,6.75
2023-02-07T14:23:57.457Z,6.40
2023-02-07T14:26:59.167Z,6.13
2023-02-07T14:29:27.574Z,5.82
2023-02-07T14:32:17.187Z,5.82
2023-02-07T14:35:25.530Z,5.45
2023-02-07T14:38:02.885Z,6.03
2023-02-07T14:40:42.636Z,5.47
2023-02-07T14:43:12.733Z,5.60
2023-02-07T14:45:52.254Z,7.40
2023-02-07T14:49:33.912Z,7.82
2023-02-07T14:52:11.340Z,7.00
2023-02-07T14:54:54.238Z,6.35
2023-02-07T14:57:50.597Z,7.13
2023-02-07T15:00:17.777Z,6.05
2023-02-07T15:02:54.851Z,6.60
2023-02-07T15:05:33.989Z,5.97
2023-02-07T15:08:03.825Z,5.93
2023-02-07T15:10:38.381Z,6.53
2023-02-07T15:13:20.899Z,6.80
2023-02-07T15:16:03.267Z,8.25
2023-02-07T15:18:46.745Z,10.30
2023-02-07T15:21:35.572Z,11.07
2023-02-07T15:24:16.672Z,8.68
2023-02-07T15:26:50.790Z,8.35
2023-02-07T15:29:27.982Z,7.10
2023-02-07T15:31:55.094Z,6.70
2023-02-07T15:34:31.516Z,6.05
2023-02-07T15:37:11.679Z,7.97
2023-02-07T15:39:39.131Z,6.65
2023-02-07T15:42:06.541Z,7.00
2023-02-07T15:44:45.798Z,6.60
2023-02-07T15:47:32.088Z,7.80
2023-02-07T15:50:18.697Z,8.18
2023-02-07T15:52:52.785Z,7.88
2023-02-07T15:55:48.176Z,7.25
2023-02-07T15:58:24.856Z,6.93
2023-02-07T16:00:53.249Z,6.25
2023-02-07T16:03:29.829Z,6.50
2023-02-07T16:06:20.816Z,6.57
2023-02-07T16:08:50.653Z,5.57
2023-02-07T16:11:26.534Z,6.05
2023-02-07T16:13:59.402Z,6.20
2023-02-07T16:16:39.499Z,7.00
2023-02-07T16:19:15.168Z,5.97
2023-02-07T16:21:44.465Z,6.00
2023-02-07T16:26:46.514Z,5.60
2023-02-07T16:29:21.253Z,6.63
2023-02-07T16:31:48.721Z,6.53
2023-02-07T16:34:18.345Z,9.77
2023-02-07T16:36:50.513Z,10.38
2023-02-07T16:39:17.557Z,11.85
2023-02-07T16:41:47.812Z,12.27
2023-02-07T16:44:23.046Z,13.27
2023-02-07T16:46:50.838Z,16.75
2023-02-07T16:49:22.061Z,15.80
2023-02-07T16:51:49.608Z,9.07
2023-02-07T16:54:17.059Z,7.43
2023-02-07T16:56:46.241Z,6.93
2023-02-07T16:59:17.468Z,6.63
2023-02-07T17:01:45.615Z,5.57
2023-02-07T17:04:12.935Z,6.90
2023-02-07T17:06:42.270Z,7.85
2023-02-07T17:09:24.652Z,6.20
2023-02-07T17:11:53.294Z,9.68
2023-02-07T17:14:20.693Z,8.63
2023-02-07T17:16:48.229Z,9.15
2023-02-07T17:19:26.398Z,12.57
2023-02-07T17:21:54.008Z,11.57
2023-02-07T17:24:20.852Z,12.65
2023-02-07T17:26:52.291Z,11.88
2023-02-07T17:29:20.087Z,10.55
2023-02-07T17:31:47.278Z,10.55
2023-02-07T17:34:14.234Z,9.10
2023-02-07T17:36:47.281Z,9.98
2023-02-07T17:39:16.398Z,10.60
2023-02-07T17:41:43.566Z,10.52
2023-02-07T17:44:10.564Z,8.45
2023-02-07T17:46:37.453Z,11.18
2023-02-07T17:49:04.607Z,13.07
2023-02-07T17:51:31.551Z,11.30
2023-02-07T17:53:58.555Z,9.35
2023-02-07T17:56:33.130Z,8.73
2023-02-07T17:59:04.405Z,8.40
2023-02-07T18:01:32.821Z,7.53
2023-02-07T18:03:59.924Z,6.88
2023-02-07T18:06:29.767Z,6.13
2023-02-07T18:08:58.605Z,6.28
2023-02-07T18:11:27.263Z,6.88
2023-02-07T18:13:54.565Z,5.78
2023-02-07T18:16:24.920Z,5.82
2023-02-07T18:18:54.465Z,5.80
2023-02-07T18:21:21.449Z,7.20
2023-02-07T18:23:48.503Z,6.07
2023-02-07T18:26:16.833Z,6.00
2023-02-07T18:28:44.209Z,6.07
2023-02-07T18:31:17.928Z,6.28
2023-02-07T18:33:45.797Z,7.35
2023-02-07T18:36:13.586Z,6.25
2023-02-07T18:38:40.764Z,6.00
2023-02-07T18:41:17.563Z,6.93
2023-02-07T18:43:44.517Z,6.45
2023-02-07T18:46:16.593Z,8.07
2023-02-07T18:48:51.368Z,7.93
2023-02-07T18:51:19.591Z,9.45
2023-02-07T18:53:47.566Z,11.43
2023-02-07T18:56:22.158Z,9.13
2023-02-07T18:58:52.932Z,9.73
2023-02-07T19:01:20.958Z,11.45
2023-02-07T19:03:58.466Z,13.43
2023-02-07T19:06:30.695Z,13.13
2023-02-07T19:08:57.714Z,13.05
2023-02-07T19:11:26.508Z,13.57
2023-02-07T19:13:55.040Z,13.43
2023-02-07T19:16:24.187Z,12.90
2023-02-07T19:18:51.424Z,11.55
2023-02-07T19:21:26.664Z,13.07
2023-02-07T19:23:56.368Z,15.75
2023-02-07T19:28:52.859Z,14.68
2023-02-07T19:31:21.322Z,15.77
2023-02-07T19:33:49.728Z,14.57
2023-02-07T19:36:18.494Z,14.95
2023-02-07T19:38:48.491Z,16.90
2023-02-07T19:41:18.257Z,15.05
2023-02-07T19:43:46.054Z,13.73
2023-02-07T19:46:13.121Z,13.40
2023-02-07T19:48:40.121Z,16.25
2023-02-07T19:51:17.852Z,14.30
2023-02-07T19:53:46.404Z,14.98
2023-02-07T19:56:14.319Z,15.80
2023-02-07T19:58:46.565Z,14.68
2023-02-07T20:01:14.812Z,16.23
2023-02-07T20:03:43.799Z,11.18
2023-02-07T20:06:14.227Z,10.73
2023-02-07T20:08:41.587Z,10.60
2023-02-07T20:11:12.159Z,9.02
2023-02-07T20:13:42.025Z,9.95
2023-02-07T20:16:14.753Z,9.52
2023-02-07T20:18:42.612Z,10.88
2023-02-07T20:21:14.719Z,11.40
2023-02-07T20:23:44.191Z,10.55
2023-02-07T20:28:47.097Z,12.30
2023-02-07T20:31:18.082Z,11.27
2023-02-07T20:33:45.613Z,11.77
2023-02-07T20:36:16.054Z,12.15
2023-02-07T20:38:45.834Z,13.82
2023-02-07T20:41:29.283Z,13.43
2023-02-07T20:44:05.376Z,14.57
2023-02-07T20:46:36.318Z,12.95
2023-02-07T20:49:12.027Z,13.27
2023-02-07T20:51:39.599Z,14.02
2023-02-07T20:54:07.291Z,16.60
2023-02-07T20:56:34.844Z,16.55
2023-02-07T20:59:03.250Z,14.43
2023-02-07T21:01:32.927Z,17.05
2023-02-07T21:06:29.841Z,12.48
2023-02-07T21:09:00.628Z,15.23
2023-02-07T21:11:34.524Z,14.80
2023-02-07T21:14:03.265Z,16.58
2023-02-07T21:16:33.535Z,17.27
2023-02-07T21:19:01.091Z,15.27
2023-02-07T21:21:29.092Z,13.43
2023-02-07T21:23:57.138Z,16.08
2023-02-07T21:26:26.617Z,14.57
2023-02-07T21:29:01.623Z,15.25
2023-02-07T21:31:30.647Z,15.80
2023-02-07T21:33:58.128Z,15.48
2023-02-07T21:36:31.841Z,15.95
2023-02-07T21:39:04.280Z,20.08
2023-02-07T21:41:31.543Z,19.20
2023-02-07T21:43:59.487Z,22.15
2023-02-07T21:46:31.371Z,20.17
2023-02-07T21:49:01.879Z,21.88
2023-02-07T21:51:31.423Z,19.08
2023-02-07T21:53:59.962Z,16.95
2023-02-07T21:56:30.719Z,17.33
2023-02-07T21:59:14.780Z,18.30
2023-02-07T22:01:42.899Z,17.67
2023-02-07T22:04:10.957Z,19.48
2023-02-07T22:06:42.217Z,17.10
2023-02-07T22:09:13.354Z,17.35
2023-02-07T22:11:41.252Z,18.23
2023-02-07T22:14:08.576Z,16.80
2023-02-07T22:16:35.695Z,15.82
2023-02-07T22:19:05.255Z,12.77
2023-02-07T22:21:36.049Z,11.77
2023-02-07T22:24:05.451Z,11.23
2023-02-07T22:26:33.700Z,9.50
2023-02-07T22:29:05.618Z,9.93
2023-02-07T22:31:36.762Z,10.05
2023-02-07T22:34:11.830Z,9.43
2023-02-07T22:36:45.653Z,14.35
2023-02-07T22:39:17.895Z,13.38
2023-02-07T22:41:46.197Z,11.43
2023-02-07T22:44:15.168Z,10.60
2023-02-07T22:46:43.673Z,8.75
2023-02-07T22:49:11.342Z,9.77
2023-02-07T22:51:38.856Z,10.50
2023-02-07T22:54:12.559Z,10.70
2023-02-07T22:56:39.432Z,8.35
2023-02-07T22:59:07.194Z,9.05
2023-02-07T23:01:39.132Z,10.20
2023-02-07T23:04:11.706Z,9.23
2023-02-07T23:06:38.911Z,11.65
2023-02-07T23:09:05.826Z,21.00
2023-02-07T23:11:33.548Z,37.08
2023-02-07T23:14:00.704Z,63.35
2023-02-07T23:16:29.948Z,33.60
2023-02-07T23:19:03.793Z,18.67
2023-02-07T23:21:30.856Z,11.23
2023-02-07T23:23:58.603Z,9.40
2023-02-07T23:26:26.987Z,10.13
2023-02-07T23:28:54.056Z,10.40
2023-02-07T23:31:24.033Z,9.57
2023-02-07T23:33:52.655Z,8.27
2023-02-07T23:36:20.061Z,9.68
2023-02-07T23:38:48.227Z,8.73
2023-02-07T23:41:16.151Z,9.43
2023-02-07T23:43:43.155Z,9.25
2023-02-07T23:46:10.497Z,9.20
2023-02-07T23:48:38.832Z,8.25
2023-02-07T23:51:06.638Z,10.30
2023-02-07T23:53:34.597Z,9.35
2023-02-07T23:56:03.162Z,8.95
2023-02-07T23:58:30.335Z,8.80
